Time;durP1;ratioP1;P1;durP2;ratioP2;P2;SDS_P1;SDS_P2;PMS_P1;PMS_P2;Temp;Humidity;BMP_temperature;BMP_pressure;BME280_temperature;BME280_humidity;BME280_pressure;Samples;Min_cycle;Max_cycle;Signal;HPM_P1;HPM_P2
2023/09/23 00:00:47;;;;;;;1.70;1.40;;;;;;;23.88;72.23;96902.44;4961495;28;20287;-25
2023/09/23 00:03:13;;;;;;;1.57;1.30;;;;;;;23.88;72.39;96905.88;4951804;28;20228;-25
2023/09/23 00:05:40;;;;;;;1.37;1.20;;;;;;;23.88;72.42;96911.00;4966241;28;20204;-25
2023/09/23 00:08:07;;;;;;;1.23;1.20;;;;;;;23.89;72.08;96911.88;4964626;28;20205;-25
2023/09/23 00:10:38;;;;;;;1.30;1.20;;;;;;;23.88;72.21;96912.69;4954845;28;20238;-25
2023/09/23 00:13:05;;;;;;;1.40;1.30;;;;;;;23.87;72.31;96917.00;4963629;28;20231;-25
2023/09/23 00:15:36;;;;;;;1.33;1.23;;;;;;;23.87;72.40;96913.56;4956269;28;20207;-25
2023/09/23 00:18:04;;;;;;;1.30;1.20;;;;;;;23.87;72.08;96917.00;4958207;28;20222;-25
2023/09/23 00:20:32;;;;;;;1.57;1.40;;;;;;;23.87;72.24;96916.13;4959953;28;20211;-25
2023/09/23 00:22:59;;;;;;;1.40;1.30;;;;;;;23.86;72.41;96929.81;4959326;28;20223;-25
2023/09/23 00:25:26;;;;;;;1.23;1.13;;;;;;;23.85;72.23;96916.09;4966467;28;20206;-25
2023/09/23 00:27:55;;;;;;;1.23;1.20;;;;;;;23.85;72.50;96920.38;4957897;28;20679;-25
2023/09/23 00:30:26;;;;;;;1.43;1.20;;;;;;;23.84;72.50;96927.22;4948934;28;20268;-25
2023/09/23 00:32:53;;;;;;;1.40;1.30;;;;;;;23.85;72.59;96925.50;4954534;28;20224;-25
2023/09/23 00:35:19;;;;;;;1.30;1.20;;;;;;;23.84;72.60;96926.34;4953981;28;20579;-25
2023/09/23 00:37:48;;;;;;;1.20;1.10;;;;;;;23.84;72.55;96926.34;4956054;28;20677;-25
2023/09/23 00:40:24;;;;;;;1.20;1.10;;;;;;;23.84;72.26;96929.78;4954358;28;20212;-25
2023/09/23 00:42:51;;;;;;;1.40;1.30;;;;;;;23.85;72.21;96930.63;4955215;28;20314;-25
2023/09/23 00:45:19;;;;;;;1.17;1.13;;;;;;;23.83;72.27;96922.91;4954789;28;20213;-25
2023/09/23 00:47:45;;;;;;;1.30;1.20;;;;;;;23.84;72.20;96922.09;4956931;28;20267;-25
2023/09/23 00:50:18;;;;;;;1.37;1.27;;;;;;;23.84;72.28;96921.22;4962110;28;20636;-25
2023/09/23 00:52:51;;;;;;;2.10;1.20;;;;;;;23.84;72.76;96927.22;4948036;28;20231;-25
2023/09/23 00:55:19;;;;;;;2.20;1.20;;;;;;;23.85;72.31;96939.22;4963147;28;20235;-25
2023/09/23 00:57:47;;;;;;;1.07;1.03;;;;;;;23.85;72.68;96928.06;4960633;28;20235;-25
2023/09/23 01:00:13;;;;;;;1.40;1.30;;;;;;;23.84;72.26;96940.06;4962453;28;20204;-27
2023/09/23 01:02:40;;;;;;;1.20;1.10;;;;;;;23.84;72.29;96934.94;4945279;28;20240;-25
2023/09/23 01:05:08;;;;;;;1.70;1.30;;;;;;;23.85;72.41;96938.34;4955188;28;20317;-25
2023/09/23 01:07:35;;;;;;;1.30;1.20;;;;;;;23.84;72.35;96945.19;4968376;28;20211;-25
2023/09/23 01:10:03;;;;;;;1.20;1.10;;;;;;;23.83;72.44;96951.16;4957119;28;20323;-25
2023/09/23 01:12:30;;;;;;;1.23;1.17;;;;;;;23.85;72.67;96964.88;4955776;28;20229;-25
2023/09/23 01:15:04;;;;;;;1.40;1.30;;;;;;;23.84;72.55;96958.03;4973466;28;20583;-25
2023/09/23 01:17:31;;;;;;;1.80;1.30;;;;;;;23.84;72.65;96965.72;4954019;28;20283;-25
2023/09/23 01:19:57;;;;;;;1.30;1.20;;;;;;;23.86;72.59;96965.75;4958885;28;20295;-25
2023/09/23 01:22:24;;;;;;;1.30;1.20;;;;;;;23.84;72.59;96965.72;4961538;28;20243;-25
2023/09/23 01:24:50;;;;;;;1.40;1.30;;;;;;;23.85;72.36;96972.56;4966807;28;20201;-25
2023/09/23 01:27:18;;;;;;;1.40;1.30;;;;;;;23.85;72.45;96974.25;4966896;28;20283;-25
2023/09/23 01:29:52;;;;;;;1.43;1.30;;;;;;;23.84;72.66;96970.84;4963747;28;20206;-25
2023/09/23 01:32:27;;;;;;;1.00;1.00;;;;;;;23.84;72.65;96973.41;4953574;28;20231;-25
2023/09/23 01:34:54;;;;;;;1.20;1.20;;;;;;;23.85;72.44;96982.84;4963386;28;20258;-25
2023/09/23 01:37:21;;;;;;;1.20;1.10;;;;;;;23.84;72.17;96981.13;4945230;28;20288;-26
2023/09/23 01:39:48;;;;;;;1.40;1.30;;;;;;;23.84;72.56;96990.50;4967956;28;20204;-25
2023/09/23 01:42:15;;;;;;;1.30;1.20;;;;;;;23.84;72.36;96991.38;4952846;28;20663;-25
2023/09/23 01:44:41;;;;;;;1.00;1.00;;;;;;;23.85;72.73;96994.78;4954791;28;20244;-25
2023/09/23 01:47:08;;;;;;;1.00;1.00;;;;;;;23.84;72.67;96993.94;4961737;28;20196;-25
2023/09/23 01:49:35;;;;;;;1.30;1.20;;;;;;;23.85;72.34;96994.78;4972152;28;20210;-25
2023/09/23 01:52:02;;;;;;;1.10;1.10;;;;;;;23.85;72.75;97002.50;4965943;28;20649;-25
2023/09/23 01:54:29;;;;;;;1.67;1.30;;;;;;;23.85;72.61;97007.63;4965048;28;20196;-25
2023/09/23 01:56:56;;;;;;;1.30;1.20;;;;;;;23.83;72.33;97015.31;4965223;28;20251;-25
2023/09/23 01:59:23;;;;;;;1.10;1.10;;;;;;;23.84;72.47;97024.75;4959981;28;20195;-25
2023/09/23 02:01:50;;;;;;;1.00;1.00;;;;;;;23.84;72.44;97032.44;4966648;28;20262;-25
2023/09/23 02:04:17;;;;;;;1.10;1.00;;;;;;;23.85;72.61;97040.97;4963827;28;20205;-26
2023/09/23 02:06:44;;;;;;;1.37;1.20;;;;;;;23.85;72.43;97043.56;4947658;28;20275;-25
2023/09/23 02:09:11;;;;;;;1.30;1.20;;;;;;;23.85;72.43;97048.69;4956722;28;20663;-25
2023/09/23 02:11:38;;;;;;;1.07;1.07;;;;;;;23.84;72.29;97049.53;4961943;28;20227;-25
2023/09/23 02:14:05;;;;;;;1.27;1.17;;;;;;;23.85;72.55;97051.25;4954853;28;20203;-25
2023/09/23 02:16:32;;;;;;;1.30;1.20;;;;;;;23.84;72.60;97050.41;4954521;28;20205;-25
2023/09/23 02:18:59;;;;;;;1.50;1.17;;;;;;;23.84;72.91;97052.97;4957239;28;20204;-25
2023/09/23 02:21:30;;;;;;;0.90;0.90;;;;;;;23.84;72.42;97047.84;4956232;28;20220;-25
2023/09/23 02:23:57;;;;;;;0.93;0.93;;;;;;;23.85;72.67;97056.38;4972364;28;20211;-25
2023/09/23 02:26:24;;;;;;;1.30;1.20;;;;;;;23.85;72.45;97048.69;4972755;28;20203;-25
2023/09/23 02:28:50;;;;;;;1.23;1.13;;;;;;;23.85;72.64;97059.81;4970288;28;20250;-25
2023/09/23 02:31:19;;;;;;;1.93;1.10;;;;;;;23.85;72.68;97061.50;4960461;28;20216;-25
2023/09/23 02:33:46;;;;;;;1.30;1.20;;;;;;;23.85;72.70;97058.94;4949370;28;20303;-25
2023/09/23 02:36:14;;;;;;;1.20;1.10;;;;;;;23.84;72.91;97052.97;4963425;28;20201;-25
2023/09/23 02:38:44;;;;;;;1.10;1.10;;;;;;;23.85;72.52;97064.09;4968085;28;20204;-25
2023/09/23 02:41:11;;;;;;;1.17;1.10;;;;;;;23.85;72.58;97074.34;4941848;28;20289;-25
2023/09/23 02:43:37;;;;;;;1.00;1.00;;;;;;;23.84;72.83;97081.22;5027030;23;20239;-26
2023/09/23 02:46:06;;;;;;;1.30;1.20;;;;;;;23.84;72.70;97082.91;5026461;28;20202;-25
2023/09/23 02:48:33;;;;;;;1.13;1.07;;;;;;;23.83;72.61;97081.19;5016151;28;20207;-26
2023/09/23 02:51:03;;;;;;;0.90;0.90;;;;;;;23.83;72.38;97082.03;5007924;28;20251;-25
2023/09/23 02:53:30;;;;;;;1.50;1.20;;;;;;;23.82;72.53;97090.56;5001354;28;20222;-25
2023/09/23 02:56:05;;;;;;;1.47;1.10;;;;;;;23.82;72.45;97095.72;4997698;28;20199;-26
2023/09/23 02:58:32;;;;;;;1.10;1.03;;;;;;;23.82;72.40;97090.56;4999008;28;20198;-25
2023/09/23 03:01:01;;;;;;;1.53;1.10;;;;;;;23.81;72.51;97094.00;4992393;28;20214;-25
2023/09/23 03:03:27;;;;;;;1.00;1.00;;;;;;;23.82;72.81;97089.72;4992216;28;20313;-26
2023/09/23 03:05:57;;;;;;;1.00;1.00;;;;;;;23.81;72.82;97091.44;5003754;28;20221;-26
2023/09/23 03:08:24;;;;;;;1.03;1.00;;;;;;;23.82;72.98;97090.56;4994420;28;20210;-24
2023/09/23 03:10:52;;;;;;;1.30;1.20;;;;;;;23.82;72.49;97079.44;5003252;28;20293;-25
2023/09/23 03:13:18;;;;;;;1.10;1.00;;;;;;;23.81;72.57;97083.72;4998580;28;20600;-24
2023/09/23 03:16:06;;;;;;;1.00;1.00;;;;;;;23.83;72.65;97086.31;5010376;28;20206;-26
2023/09/23 03:18:33;;;;;;;1.10;1.10;;;;;;;23.80;72.74;97084.56;4982169;28;20203;-24
2023/09/23 03:21:08;;;;;;;1.23;1.13;;;;;;;23.81;72.50;97091.44;4989785;28;20207;-25
2023/09/23 03:23:39;;;;;;;1.30;1.20;;;;;;;23.81;72.91;97088.88;4993206;28;20345;-25
2023/09/23 03:26:08;;;;;;;1.10;1.10;;;;;;;23.83;72.87;97100.00;4987384;28;20203;-26
2023/09/23 03:28:42;;;;;;;1.00;1.00;;;;;;;23.80;72.55;97092.25;4987625;28;20302;-25
2023/09/23 03:31:09;;;;;;;1.07;1.07;;;;;;;23.83;72.71;97099.16;4988838;28;20208;-25
2023/09/23 03:33:37;;;;;;;1.30;1.20;;;;;;;23.82;72.52;97100.84;4995099;28;20245;-25
2023/09/23 03:36:08;;;;;;;0.90;0.90;;;;;;;23.82;72.85;97099.97;4991420;28;20199;-25
2023/09/23 03:38:35;;;;;;;1.03;1.03;;;;;;;23.83;72.46;97105.13;4985877;28;20299;-25
2023/09/23 03:41:02;;;;;;;1.13;1.10;;;;;;;23.83;72.92;97105.13;4982998;28;20242;-24
2023/09/23 03:43:29;;;;;;;0.90;0.90;;;;;;;23.45;72.93;97049.00;4985062;28;20230;-25
2023/09/23 03:45:56;;;;;;;1.07;1.07;;;;;;;23.83;72.56;97111.97;4986147;28;20269;-26
2023/09/23 03:48:22;;;;;;;1.17;1.10;;;;;;;23.83;72.60;97114.53;4986458;28;20213;-24
2023/09/23 03:50:52;;;;;;;1.10;1.10;;;;;;;23.83;72.60;97122.25;4985476;28;20302;-26
2023/09/23 03:53:22;;;;;;;1.17;1.00;;;;;;;23.83;73.01;97122.25;4985198;28;20230;-24
2023/09/23 03:55:52;;;;;;;1.20;1.10;;;;;;;23.83;72.54;97132.50;4985265;28;20265;-25
2023/09/23 03:58:19;;;;;;;1.00;1.00;;;;;;;23.83;72.69;97128.22;4985702;28;20219;-25
2023/09/23 04:00:46;;;;;;;1.30;1.07;;;;;;;23.83;72.73;97135.91;4985831;28;20240;-25
2023/09/23 04:03:13;;;;;;;1.27;1.17;;;;;;;23.84;72.54;97136.78;4986211;28;20226;-25
2023/09/23 04:05:40;;;;;;;1.20;1.10;;;;;;;23.84;72.64;97144.50;4982663;28;20580;-25
2023/09/23 04:08:06;;;;;;;1.23;1.13;;;;;;;23.75;72.72;97137.53;4983686;28;20630;-25
2023/09/23 04:10:36;;;;;;;1.13;1.03;;;;;;;23.82;72.60;97154.72;4983767;28;20203;-22
2023/09/23 04:13:02;;;;;;;1.00;1.00;;;;;;;23.84;72.86;97152.19;4984010;28;20317;-25
2023/09/23 04:15:29;;;;;;;1.10;1.10;;;;;;;23.84;72.46;97160.75;4983403;28;20234;-24
2023/09/23 04:17:55;;;;;;;1.10;1.10;;;;;;;23.83;72.65;97168.44;4968822;28;20215;-24
2023/09/23 04:20:22;;;;;;;1.17;1.10;;;;;;;23.84;72.43;97165.03;4984981;28;20286;-24
2023/09/23 04:22:49;;;;;;;1.10;1.00;;;;;;;23.83;72.79;97171.84;4989567;28;20609;-24
2023/09/23 04:25:15;;;;;;;1.53;1.10;;;;;;;23.85;72.53;97174.44;4988558;28;20214;-25
2023/09/23 04:27:42;;;;;;;1.20;1.10;;;;;;;23.85;72.77;97179.56;4988875;28;20685;-26
2023/09/23 04:30:09;;;;;;;1.10;1.07;;;;;;;23.85;72.76;97182.13;4989719;28;20281;-25
2023/09/23 04:32:36;;;;;;;0.90;0.90;;;;;;;23.85;72.60;97193.28;4987113;28;20231;-25
2023/09/23 04:35:03;;;;;;;0.90;0.90;;;;;;;23.85;72.45;97193.28;4988192;28;20226;-24
2023/09/23 04:37:30;;;;;;;0.90;0.90;;;;;;;23.84;72.80;97194.13;4987621;28;20695;-25
2023/09/23 04:39:57;;;;;;;1.10;1.00;;;;;;;23.85;72.77;97200.09;4987282;28;20206;-26
2023/09/23 04:42:24;;;;;;;0.90;0.90;;;;;;;23.85;72.65;97206.09;4989524;28;20322;-25
2023/09/23 04:44:50;;;;;;;1.00;1.00;;;;;;;23.85;72.76;97208.66;4989664;28;20205;-24
2023/09/23 04:47:19;;;;;;;0.80;0.80;;;;;;;23.85;72.88;97218.94;4989648;28;20225;-23
2023/09/23 04:49:46;;;;;;;0.90;0.90;;;;;;;23.85;72.81;97224.06;4988762;28;20219;-25
2023/09/23 04:52:15;;;;;;;1.00;1.00;;;;;;;23.86;72.53;97218.09;4987017;28;20301;-26
2023/09/23 04:54:42;;;;;;;0.90;0.90;;;;;;;23.86;72.52;97224.94;4986250;28;20207;-25
2023/09/23 04:57:09;;;;;;;1.00;1.00;;;;;;;23.86;72.73;97228.34;4988393;28;20210;-24
2023/09/23 04:59:35;;;;;;;1.07;1.07;;;;;;;23.86;72.73;97237.78;4986932;28;20211;-26
2023/09/23 05:02:03;;;;;;;1.00;1.00;;;;;;;23.86;72.77;97246.31;4987558;28;20250;-25
2023/09/23 05:04:30;;;;;;;1.10;1.10;;;;;;;23.84;72.60;97248.03;4987191;28;20902;-26
2023/09/23 05:06:56;;;;;;;1.10;1.10;;;;;;;23.77;72.47;97243.59;4986914;28;20294;-25
2023/09/23 05:09:26;;;;;;;1.23;1.13;;;;;;;23.84;72.54;97255.72;4989202;28;20551;-25
2023/09/23 05:11:53;;;;;;;1.00;1.00;;;;;;;23.83;72.89;97255.69;4986638;28;20337;-25
2023/09/23 05:14:20;;;;;;;0.93;0.93;;;;;;;23.84;72.54;97254.84;4987488;28;20285;-26
2023/09/23 05:16:50;;;;;;;1.43;1.10;;;;;;;23.77;72.64;97247.91;4986160;28;20238;-25
2023/09/23 05:19:19;;;;;;;0.83;0.83;;;;;;;23.81;72.72;97258.25;4971917;28;20215;-23
2023/09/23 05:21:46;;;;;;;0.97;0.97;;;;;;;23.82;72.81;97259.06;4987995;28;20209;-25
2023/09/23 05:24:13;;;;;;;1.03;1.03;;;;;;;23.82;72.99;97259.06;4986803;28;20294;-24
2023/09/23 05:26:40;;;;;;;1.10;1.00;;;;;;;23.81;72.71;97253.09;4987947;28;20211;-26
2023/09/23 05:29:07;;;;;;;0.80;0.80;;;;;;;23.82;72.75;97267.66;4988013;28;20289;-26
2023/09/23 05:31:36;;;;;;;1.10;1.10;;;;;;;23.81;72.70;97265.94;4985290;28;20210;-24
2023/09/23 05:34:04;;;;;;;1.30;1.20;;;;;;;23.81;72.80;97272.75;4987612;28;20273;-25
2023/09/23 05:36:31;;;;;;;1.20;1.10;;;;;;;23.82;73.03;97265.09;4988443;28;20225;-22
2023/09/23 05:38:59;;;;;;;1.07;1.07;;;;;;;23.82;73.10;97280.47;4985534;28;20307;-24
2023/09/23 05:41:25;;;;;;;1.00;1.00;;;;;;;23.82;72.75;97282.19;4984301;28;20681;-25
2023/09/23 05:43:52;;;;;;;1.00;1.00;;;;;;;23.82;72.69;97295.88;4986372;28;20237;-23
2023/09/23 05:46:19;;;;;;;0.93;0.93;;;;;;;23.82;72.74;97295.00;4985694;28;20298;-25
2023/09/23 05:48:48;;;;;;;0.90;0.90;;;;;;;23.84;72.71;97298.47;4984919;28;20657;-26
2023/09/23 05:51:15;;;;;;;0.93;0.90;;;;;;;23.83;73.20;97294.19;4986666;28;20215;-25
2023/09/23 05:53:42;;;;;;;1.00;1.00;;;;;;;23.82;73.14;97295.88;4987308;28;20226;-25
2023/09/23 05:56:09;;;;;;;0.90;0.90;;;;;;;23.83;73.00;97296.75;4986099;28;20203;-25
2023/09/23 05:58:36;;;;;;;1.00;1.00;;;;;;;23.78;72.73;97295.81;4986816;28;20586;-24
2023/09/23 06:01:02;;;;;;;1.30;1.00;;;;;;;23.83;72.78;97301.88;4985807;28;20298;-25
2023/09/23 06:03:29;;;;;;;1.13;1.00;;;;;;;23.83;72.72;97313.00;4986039;28;20269;-24
2023/09/23 06:05:56;;;;;;;2.93;1.20;;;;;;;23.82;71.95;97313.84;4986313;28;21123;-24
2023/09/23 06:08:22;;;;;;;1.30;1.20;;;;;;;23.81;68.22;97317.25;4986591;28;20210;-24
2023/09/23 06:10:50;;;;;;;1.80;1.10;;;;;;;23.80;65.47;97318.06;4986504;28;20214;-25
2023/09/23 06:13:17;;;;;;;6.17;1.37;;;;;;;23.69;63.30;97306.78;4986219;28;20573;-25
2023/09/23 06:15:43;;;;;;;3.77;1.60;;;;;;;23.77;62.34;97318.03;4984444;28;20293;-23
2023/09/23 06:18:10;;;;;;;3.47;1.73;;;;;;;23.75;61.05;97326.53;4987331;28;20234;-25
2023/09/23 06:20:37;;;;;;;3.23;1.63;;;;;;;23.77;61.08;97327.44;4985406;28;20206;-25
2023/09/23 06:23:04;;;;;;;5.50;1.73;;;;;;;23.76;60.14;97329.13;4986805;28;20331;-25
2023/09/23 06:25:30;;;;;;;2.67;1.60;;;;;;;23.75;59.52;97335.13;4986605;28;20210;-25
2023/09/23 06:27:57;;;;;;;5.63;1.73;;;;;;;23.75;57.72;97340.25;4986596;28;20687;-23
2023/09/23 06:30:23;;;;;;;4.93;1.73;;;;;;;23.73;57.29;97349.63;4985774;28;20210;-25
2023/09/23 06:32:50;;;;;;;5.40;1.70;;;;;;;23.71;58.34;97348.72;4985625;28;20289;-24
2023/09/23 06:35:19;;;;;;;3.67;1.90;;;;;;;23.72;58.89;97359.84;4985228;28;20585;-25
2023/09/23 06:37:46;;;;;;;8.03;2.27;;;;;;;23.70;58.13;97352.13;4985447;28;20331;-25
2023/09/23 06:40:14;;;;;;;3.87;1.43;;;;;;;23.66;56.61;97352.03;4983964;28;20294;-24
2023/09/23 06:42:41;;;;;;;3.37;1.47;;;;;;;23.67;56.32;97367.47;4986812;28;20229;-24
2023/09/23 06:45:09;;;;;;;3.67;1.50;;;;;;;23.66;56.09;97359.75;4984320;28;20504;-25
2023/09/23 06:47:36;;;;;;;4.23;1.73;;;;;;;23.65;55.99;97368.28;4986079;28;20299;-22
2023/09/23 06:50:04;;;;;;;2.83;1.53;;;;;;;23.63;55.31;97368.25;4985563;28;20222;-24
2023/09/23 06:52:30;;;;;;;2.47;1.80;;;;;;;23.63;55.44;97369.94;4986591;28;20285;-25
2023/09/23 06:54:59;;;;;;;1.90;1.43;;;;;;;23.61;55.76;97377.63;4992699;28;20219;-24
2023/09/23 06:57:26;;;;;;;3.43;1.53;;;;;;;23.60;55.11;97386.16;5000901;28;20230;-25
2023/09/23 06:59:52;;;;;;;2.30;1.53;;;;;;;23.59;55.32;97386.97;5002345;28;20206;-25
2023/09/23 07:02:19;;;;;;;1.77;1.40;;;;;;;23.59;54.66;97386.97;4994751;28;20320;-26
2023/09/23 07:04:49;;;;;;;2.13;1.40;;;;;;;23.59;54.63;97389.53;4994977;28;20215;-25
2023/09/23 07:07:15;;;;;;;2.30;1.80;;;;;;;23.59;54.51;97398.97;4992493;28;20198;-25
2023/09/23 07:09:42;;;;;;;1.40;1.30;;;;;;;23.57;55.07;97386.09;4989439;28;20198;-25
2023/09/23 07:12:12;;;;;;;2.67;1.60;;;;;;;23.59;55.98;97388.69;4990770;28;20235;-26
2023/09/23 07:14:39;;;;;;;3.00;1.43;;;;;;;23.59;56.83;97389.53;4991716;28;20231;-24
2023/09/23 07:17:06;;;;;;;1.80;1.60;;;;;;;23.61;57.98;97394.69;4999447;28;20237;-25
2023/09/23 07:19:33;;;;;;;1.83;1.50;;;;;;;23.61;59.10;97405.84;4994532;28;20321;-25
2023/09/23 07:22:00;;;;;;;3.40;1.53;;;;;;;23.63;59.85;97405.88;4990196;28;20285;-25
2023/09/23 07:24:27;;;;;;;1.90;1.50;;;;;;;23.62;60.24;97406.72;4991465;28;20278;-25
2023/09/23 07:26:54;;;;;;;4.03;1.60;;;;;;;23.62;60.49;97402.44;4988144;28;20293;-25
2023/09/23 07:29:20;;;;;;;2.70;1.60;;;;;;;23.63;60.08;97399.03;4996620;28;20233;-25
2023/09/23 07:31:47;;;;;;;11.23;1.87;;;;;;;23.61;57.23;97408.41;4991416;28;20942;-26
2023/09/23 07:34:14;;;;;;;4.27;1.70;;;;;;;23.59;55.73;97402.38;4999944;28;20643;-25
2023/09/23 07:36:42;;;;;;;2.73;1.40;;;;;;;23.60;55.96;97408.38;4996036;28;20213;-25
2023/09/23 07:39:10;;;;;;;3.67;1.33;;;;;;;23.59;56.64;97425.47;4994616;28;20202;-25
2023/09/23 07:41:37;;;;;;;1.50;1.30;;;;;;;23.60;57.95;97428.91;4984663;28;20207;-24
2023/09/23 07:44:04;;;;;;;5.90;1.40;;;;;;;23.59;58.39;97430.59;4995419;28;20245;-25
2023/09/23 07:46:30;;;;;;;4.77;1.40;;;;;;;23.60;59.30;97440.03;5002895;28;20202;-25
2023/09/23 07:48:57;;;;;;;2.83;1.40;;;;;;;23.59;59.80;97432.31;4995994;28;20642;-26
2023/09/23 07:51:23;;;;;;;3.30;1.47;;;;;;;23.62;60.26;97450.31;5007644;28;20262;-25
2023/09/23 07:53:53;;;;;;;3.20;1.50;;;;;;;23.62;60.83;97451.16;4996979;28;20230;-25
2023/09/23 07:56:19;;;;;;;3.80;1.43;;;;;;;23.63;61.19;97462.31;4993512;28;20238;-25
2023/09/23 07:58:46;;;;;;;3.30;1.60;;;;;;;23.63;61.32;97468.31;5006463;28;20692;-25
2023/09/23 08:01:13;;;;;;;2.30;1.60;;;;;;;23.63;61.74;97468.31;5009742;28;20195;-25
2023/09/23 08:03:39;;;;;;;2.83;1.60;;;;;;;23.63;61.74;97470.88;4989424;28;20233;-25
2023/09/23 08:06:06;;;;;;;3.43;1.33;;;;;;;23.63;62.28;97480.28;5012456;28;20257;-24
2023/09/23 08:08:32;;;;;;;1.80;1.50;;;;;;;23.62;62.35;97486.25;5012702;28;20215;-25
2023/09/23 08:10:59;;;;;;;2.87;1.47;;;;;;;23.63;62.77;97488.84;5010786;28;20208;-26
2023/09/23 08:13:26;;;;;;;2.80;1.50;;;;;;;23.63;63.26;97498.22;4991789;28;20327;-24
2023/09/23 08:15:58;;;;;;;2.07;1.30;;;;;;;23.63;63.32;97504.25;4997558;28;20207;-25
2023/09/23 08:18:25;;;;;;;6.67;1.60;;;;;;;23.62;60.84;97510.19;4992193;28;20237;-25
2023/09/23 08:20:59;;;;;;;1.40;1.30;;;;;;;23.62;59.92;97510.19;4992934;28;20227;-25
2023/09/23 08:23:26;;;;;;;2.80;1.50;;;;;;;23.63;60.41;97509.38;4991382;28;20218;-24
2023/09/23 08:25:53;;;;;;;3.83;1.40;;;;;;;23.62;60.74;97512.75;4988371;28;20222;-24
2023/09/23 08:28:20;;;;;;;5.17;1.50;;;;;;;23.62;60.87;97507.63;4985016;28;20289;-25
2023/09/23 08:30:49;;;;;;;3.33;1.63;;;;;;;23.62;61.67;97510.19;4984217;28;20222;-25
2023/09/23 08:33:16;;;;;;;3.70;1.20;;;;;;;23.63;62.18;97508.50;4984000;28;20246;-28
2023/09/23 08:35:47;;;;;;;4.10;1.80;;;;;;;23.62;62.45;97517.03;4985932;28;21102;-26
2023/09/23 08:38:14;;;;;;;10.27;1.40;;;;;;;23.62;62.87;97522.16;4983285;28;20212;-24
2023/09/23 08:40:42;;;;;;;2.37;1.30;;;;;;;23.63;63.19;97523.88;4967752;28;20206;-25
2023/09/23 08:43:09;;;;;;;5.27;1.40;;;;;;;23.63;63.53;97526.47;4985206;28;20258;-24
2023/09/23 08:45:45;;;;;;;2.43;1.57;;;;;;;23.63;63.62;97529.91;4983772;28;20266;-24
2023/09/23 08:48:13;;;;;;;3.20;1.50;;;;;;;23.65;63.97;97527.38;4970702;28;20214;-24
2023/09/23 08:50:42;;;;;;;1.97;1.20;;;;;;;23.64;64.19;97526.50;4973035;28;20219;-25
2023/09/23 08:53:09;;;;;;;4.17;1.40;;;;;;;23.64;64.72;97529.06;4984467;28;20223;-24
2023/09/23 08:55:36;;;;;;;2.33;1.50;;;;;;;23.65;64.77;97535.91;4970365;28;21083;-25
2023/09/23 08:58:04;;;;;;;2.20;1.43;;;;;;;23.67;64.69;97541.94;4982788;28;20732;-25
2023/09/23 09:00:31;;;;;;;5.00;1.80;;;;;;;23.53;65.00;97517.69;5004603;23;20274;-25
2023/09/23 09:02:58;;;;;;;5.43;2.03;;;;;;;23.69;65.34;97548.00;5020890;28;20254;-25
2023/09/23 09:05:24;;;;;;;4.93;1.70;;;;;;;23.70;65.32;97543.69;5025276;28;20222;-27
2023/09/23 09:07:52;;;;;;;6.47;1.50;;;;;;;23.65;65.47;97532.50;5018903;28;20680;-25
2023/09/23 09:10:19;;;;;;;8.40;1.70;;;;;;;23.71;65.78;97543.72;5020108;28;20210;-25
2023/09/23 09:12:48;;;;;;;2.43;1.40;;;;;;;23.71;65.42;97548.88;5020968;28;20213;-25
2023/09/23 09:15:17;;;;;;;8.10;2.03;;;;;;;23.71;65.66;97543.72;5021538;28;20786;-25
2023/09/23 09:17:45;;;;;;;3.83;1.60;;;;;;;23.65;66.02;97528.22;5020050;28;20860;-25
2023/09/23 09:20:12;;;;;;;6.27;1.87;;;;;;;23.71;65.87;97533.47;5018360;28;20209;-25
2023/09/23 09:22:39;;;;;;;6.77;1.80;;;;;;;23.72;66.26;97534.34;5017242;28;20683;-25
2023/09/23 09:25:11;;;;;;;1.53;1.33;;;;;;;23.71;66.30;97533.47;5015155;28;20574;-25
2023/09/23 09:27:38;;;;;;;3.00;1.30;;;;;;;23.71;66.16;97532.63;5006899;28;20209;-28
2023/09/23 09:30:11;;;;;;;1.43;1.17;;;;;;;23.71;66.50;97530.91;5020085;28;20288;-25
2023/09/23 09:32:44;;;;;;;2.30;1.47;;;;;;;23.71;66.50;97541.16;5018217;28;20221;-25
2023/09/23 09:35:12;;;;;;;4.40;1.60;;;;;;;23.71;66.75;97536.03;5017850;28;20221;-25
2023/09/23 09:37:41;;;;;;;5.17;1.73;;;;;;;23.72;66.80;97540.34;5014891;28;20213;-26
2023/09/23 09:40:09;;;;;;;2.40;1.40;;;;;;;23.73;66.61;97533.50;4999801;28;20280;-27
2023/09/23 09:42:36;;;;;;;3.50;1.20;;;;;;;23.61;66.58;97517.84;5001249;28;20225;-25
2023/09/23 09:45:03;;;;;;;2.63;1.40;;;;;;;23.73;66.84;97539.50;4986450;28;20215;-27
2023/09/23 09:47:30;;;;;;;2.27;1.20;;;;;;;23.62;67.05;97523.00;4983024;28;20285;-25
2023/09/23 09:49:57;;;;;;;3.63;1.60;;;;;;;23.70;66.98;97536.88;5000728;28;20770;-25
2023/09/23 09:52:24;;;;;;;1.33;1.10;;;;;;;23.73;67.18;97536.94;5001003;28;20232;-27
2023/09/23 09:54:52;;;;;;;2.50;1.57;;;;;;;23.72;66.86;97535.22;5012860;28;20222;-25
2023/09/23 09:57:20;;;;;;;2.87;1.67;;;;;;;23.72;67.07;97540.34;5014450;28;20291;-25
2023/09/23 09:59:47;;;;;;;2.83;1.20;;;;;;;23.67;67.06;97523.97;4999734;28;20237;-25
2023/09/23 10:02:14;;;;;;;2.03;1.20;;;;;;;23.72;67.15;97540.34;5018771;28;20275;-25
2023/09/23 10:04:45;;;;;;;1.77;1.47;;;;;;;23.72;67.20;97545.47;5021653;28;20944;-25
2023/09/23 10:07:12;;;;;;;1.70;1.27;;;;;;;23.72;67.19;97542.03;5025928;28;20270;-25
2023/09/23 10:09:54;;;;;;;3.60;1.33;;;;;;;23.67;67.37;97538.50;5025422;28;20210;-25
2023/09/23 10:12:26;;;;;;;2.53;1.50;;;;;;;23.71;67.33;97542.88;5027548;28;20229;-25
2023/09/23 10:14:55;;;;;;;2.10;1.30;;;;;;;23.71;67.26;97548.03;5026573;28;21406;-25
2023/09/23 10:17:31;;;;;;;1.13;1.00;;;;;;;23.71;67.51;97538.59;5029332;28;20248;-26
2023/09/23 10:19:58;;;;;;;2.60;1.33;;;;;;;23.69;67.68;97530.03;5028454;28;20197;-25
2023/09/23 10:22:28;;;;;;;2.47;1.40;;;;;;;23.75;64.94;97547.25;5028496;28;20312;-25
2023/09/23 10:25:03;;;;;;;1.53;1.20;;;;;;;23.75;63.68;97540.41;5031192;28;20289;-26
2023/09/23 10:27:30;;;;;;;2.00;1.43;;;;;;;23.75;63.70;97531.84;5033263;28;20201;-25
2023/09/23 10:29:58;;;;;;;4.20;1.37;;;;;;;23.77;65.09;97538.72;5028293;28;20218;-25
2023/09/23 10:32:25;;;;;;;3.97;1.20;;;;;;;23.78;65.54;97540.47;5026822;28;20312;-24
2023/09/23 10:34:55;;;;;;;3.67;1.40;;;;;;;23.78;66.28;97535.34;5032238;28;20247;-25
2023/09/23 10:37:31;;;;;;;2.13;1.30;;;;;;;23.78;65.31;97531.91;5031074;28;20202;-25
2023/09/23 10:40:12;;;;;;;3.30;1.63;;;;;;;23.78;61.46;97530.22;5027627;28;20205;-25
2023/09/23 10:42:44;;;;;;;4.17;1.50;;;;;;;23.76;58.16;97529.31;5025422;28;20232;-25
2023/09/23 10:45:11;;;;;;;2.20;1.50;;;;;;;23.76;58.19;97525.88;5029584;28;20281;-26
2023/09/23 10:47:38;;;;;;;6.70;1.60;;;;;;;23.76;59.50;97531.88;5023109;28;20201;-25
2023/09/23 10:50:06;;;;;;;1.73;1.30;;;;;;;23.76;60.73;97531.88;5040975;28;20610;-25
2023/09/23 10:52:33;;;;;;;9.10;1.30;;;;;;;23.78;61.49;97534.47;5033348;28;20229;-25
2023/09/23 10:54:59;;;;;;;5.90;1.63;;;;;;;23.78;62.06;97547.31;5040013;28;20270;-25
2023/09/23 10:57:27;;;;;;;3.43;1.40;;;;;;;23.78;62.52;97539.59;5043103;28;20253;-26
2023/09/23 10:59:54;;;;;;;6.30;1.60;;;;;;;23.78;62.77;97543.03;5038949;28;20738;-25
2023/09/23 11:02:22;;;;;;;2.73;1.60;;;;;;;23.78;63.11;97539.59;5025119;28;20264;-25
2023/09/23 11:04:49;;;;;;;2.23;1.30;;;;;;;23.77;63.47;97538.72;5045231;28;20692;-25
2023/09/23 11:07:16;;;;;;;2.53;1.40;;;;;;;23.76;63.36;97539.56;5042145;28;20197;-34
2023/09/23 11:09:46;;;;;;;3.40;1.40;;;;;;;23.76;63.92;97541.25;5023741;28;20202;-25
2023/09/23 11:12:13;;;;;;;3.70;1.70;;;;;;;23.77;64.38;97543.84;5033783;28;20229;-26
2023/09/23 11:14:44;;;;;;;3.47;1.43;;;;;;;23.77;64.52;97543.00;5038215;28;20232;-25
2023/09/23 11:17:39;;;;;;;1.40;1.30;;;;;;;23.77;64.79;97555.84;5032462;28;20271;-25
2023/09/23 11:20:09;;;;;;;4.83;1.60;;;;;;;23.77;65.00;97543.00;5024251;28;20626;-25
2023/09/23 11:22:37;;;;;;;2.83;1.40;;;;;;;23.76;65.34;97542.13;5033324;28;20229;-25
2023/09/23 11:25:07;;;;;;;1.40;1.20;;;;;;;23.75;65.40;97548.13;5035660;28;20197;-25
2023/09/23 11:27:34;;;;;;;2.90;1.40;;;;;;;23.73;65.68;97544.63;5044584;28;20387;-25
2023/09/23 11:30:01;;;;;;;1.77;1.30;;;;;;;23.75;65.63;97555.81;5006853;28;20198;-25
2023/09/23 11:32:28;;;;;;;2.57;1.30;;;;;;;23.75;65.81;97555.81;5049137;28;20220;-25
2023/09/23 11:34:54;;;;;;;3.27;1.40;;;;;;;23.75;66.09;97560.94;5034883;28;20315;-25
2023/09/23 11:37:22;;;;;;;1.63;1.37;;;;;;;23.75;65.98;97560.06;5043507;28;20197;-25